Time;durP1;ratioP1;P1;durP2;ratioP2;P2;SDS_P1;SDS_P2;PMS_P1;PMS_P2;Temp;Humidity;BMP_temperature;BMP_pressure;BME280_temperature;BME280_humidity;BME280_pressure;Samples;Min_cycle;Max_cycle;Signal;HPM_P1;HPM_P2
2021/05/01 00:02:44;;;;;;;;;;;;;;;;;;7336976;40;1019;-10
2021/05/01 00:08:05;;;;;;;;;;;;;;;;;;7336735;40;1886;-10
2021/05/01 00:13:25;;;;;;;;;;;;;;;;;;7336816;40;1272;-10
2021/05/01 00:18:45;;;;;;;;;;;;;;;;;;7336931;40;999;-10
2021/05/01 00:24:06;;;;;;;;;;;;;;;;;;7336453;40;929;-10
2021/05/01 00:29:27;;;;;;;;;;;;;;;;;;7336252;40;1890;-10
2021/05/01 00:34:47;;;;;;;;;;;;;;;;;;7337369;40;1035;-10
2021/05/01 00:40:08;;;;;;;;;;;;;;;;;;7339452;40;1058;-10
2021/05/01 00:45:29;;;;;;;;;;;;;;;;;;7339605;40;1180;-10
2021/05/01 00:50:49;;;;;;;;;;;;;;;;;;7339187;40;1874;-8
2021/05/01 00:56:09;;;;;;;;;;;;;;;;;;7339257;40;1021;-8
2021/05/01 01:01:30;;;;;;;;;;;;;;;;;;7339208;40;963;-8
2021/05/01 01:06:50;;;;;;;;;;;;;;;;;;7339193;40;1127;-8
2021/05/01 01:12:11;;;;;;;;;;;;;;;;;;7339222;40;1293;-9
2021/05/01 01:17:31;;;;;;;;;;;;;;;;;;7339134;40;987;-9
2021/05/01 01:22:51;;;;;;;;;;;;;;;;;;7339002;40;1131;-9
2021/05/01 01:28:12;;;;;;;;;;;;;;;;;;7338970;40;1882;-10
2021/05/01 01:33:32;;;;;;;;;;;;;;;;;;7339233;40;995;-10
2021/05/01 01:38:53;;;;;;;;;;;;;;;;;;7339111;40;911;-10
2021/05/01 01:44:14;;;;;;;;;;;;;;;;;;7339157;40;911;-10
2021/05/01 01:49:35;;;;;;;;;;;;;;;;;;7338831;40;1898;-10
2021/05/01 01:54:55;;;;;;;;;;;;;;;;;;7344014;40;999;-10
2021/05/01 02:00:18;;;;;;;;;;;;;;;;;;7338719;40;986;-10
2021/05/01 02:05:38;;;;;;;;;;;;;;;;;;7338624;40;1016;-10
2021/05/01 02:10:59;;;;;;;;;;;;;;;;;;7338435;40;1883;-10
2021/05/01 02:16:19;;;;;;;;;;;;;;;;;;7338635;40;983;-10
2021/05/01 02:21:39;;;;;;;;;;;;;;;;;;7338127;40;1002;-10
2021/05/01 02:27:00;;;;;;;;;;;;;;;;;;7338497;40;998;-10
2021/05/01 02:32:20;;;;;;;;;;;;;;;;;;7338223;40;1005;-10
2021/05/01 02:37:41;;;;;;;;;;;;;;;;;;7337934;40;1008;-10
2021/05/01 02:43:05;;;;;;;;;;;;;;;;;;7338176;40;1047;-10
2021/05/01 02:48:26;;;;;;;;;;;;;;;;;;7337961;40;1882;-10
2021/05/01 02:53:46;;;;;;;;;;;;;;;;;;7337927;40;987;-10
2021/05/01 02:59:06;;;;;;;;;;;;;;;;;;7337409;40;944;-10
2021/05/01 03:04:27;;;;;;;;;;;;;;;;;;7336958;40;1207;-10
2021/05/01 03:09:47;;;;;;;;;;;;;;;;;;7337794;40;1870;-11
2021/05/01 03:15:08;;;;;;;;;;;;;;;;;;7337977;40;1242;-8
2021/05/01 03:20:28;;;;;;;;;;;;;;;;;;7337833;40;941;-10
2021/05/01 03:25:50;;;;;;;;;;;;;;;;;;7337898;40;1114;-9
2021/05/01 03:31:10;;;;;;;;;;;;;;;;;;7337589;40;1882;-9
2021/05/01 03:36:30;;;;;;;;;;;;;;;;;;7337583;40;1006;-10
2021/05/01 03:41:51;;;;;;;;;;;;;;;;;;7337254;40;1120;-10
2021/05/01 03:47:11;;;;;;;;;;;;;;;;;;7336933;40;1333;-10
2021/05/01 03:52:32;;;;;;;;;;;;;;;;;;7343303;40;1250;-10
2021/05/01 03:57:52;;;;;;;;;;;;;;;;;;7341289;40;1382;-10
2021/05/01 04:03:12;;;;;;;;;;;;;;;;;;7343016;40;1105;-10
2021/05/01 04:08:33;;;;;;;;;;;;;;;;;;7338960;40;1867;-10
2021/05/01 04:13:53;;;;;;;;;;;;;;;;;;7346170;40;1284;-10
2021/05/01 04:19:14;;;;;;;;;;;;;;;;;;7339572;40;983;-9
2021/05/01 04:24:35;;;;;;;;;;;;;;;;;;7339602;40;979;-9
2021/05/01 04:29:56;;;;;;;;;;;;;;;;;;7340198;40;1878;-9
2021/05/01 04:35:16;;;;;;;;;;;;;;;;;;7342015;40;977;-10
2021/05/01 04:40:36;;;;;;;;;;;;;;;;;;7339590;40;978;-10
2021/05/01 04:45:58;;;;;;;;;;;;;;;;;;7339790;40;1069;-10
2021/05/01 04:51:18;;;;;;;;;;;;;;;;;;7339136;40;1874;-10
2021/05/01 04:56:39;;;;;;;;;;;;;;;;;;7339567;40;1102;-10
2021/05/01 05:01:59;;;;;;;;;;;;;;;;;;7336776;40;2471;-10
2021/05/01 05:07:20;;;;;;;;;;;;;;;;;;7336149;40;1038;-10
2021/05/01 05:12:40;;;;;;;;;;;;;;;;;;7336055;40;1155;-10
2021/05/01 05:18:01;;;;;;;;;;;;;;;;;;7336551;40;975;-9
2021/05/01 05:23:21;;;;;;;;;;;;;;;;;;7336134;40;1008;-10
2021/05/01 05:28:41;;;;;;;;;;;;;;;;;;7335393;40;1937;-10
2021/05/01 05:34:02;;;;;;;;;;;;;;;;;;7325420;40;1346;-10
2021/05/01 05:39:22;;;;;;;;;;;;;;;;;;7323626;40;1094;-10
2021/05/01 05:44:48;;;;;;;;;;;;;;;;;;7331796;40;1213;-10
2021/05/01 05:50:09;;;;;;;;;;;;;;;;;;7337688;40;1940;-10
2021/05/01 05:55:29;;;;;;;;;;;;;;;;;;7338456;40;1034;-10
2021/05/01 06:00:49;;;;;;;;;;;;;;;;;;7338378;40;1006;-10
2021/05/01 06:06:17;;;;;;;;;;;;;;;;;;7340323;40;1054;-10
2021/05/01 06:11:38;;;;;;;;;;;;;;;;;;7338130;40;1890;-10
2021/05/01 06:16:59;;;;;;;;;;;;;;;;;;7338308;40;954;-11
2021/05/01 06:22:19;;;;;;;;;;;;;;;;;;7344563;40;1222;-10
2021/05/01 06:27:40;;;;;;;;;;;;;;;;;;7337985;40;974;-10
2021/05/01 06:33:02;;;;;;;;;;;;;;;;;;7337780;40;1081;-11
2021/05/01 06:38:23;;;;;;;;;;;;;;;;;;7337369;40;1406;-10
2021/05/01 06:44:01;;;;;;;;;;;;;;;;;;7337827;40;961;-10
2021/05/01 06:49:26;;;;;;;;;;;;;;;;;;7337744;40;1952;-10
2021/05/01 06:54:49;;;;;;;;;;;;;;;;;;7338126;40;881;-10
2021/05/01 07:00:10;;;;;;;;;;;;;;;;;;7337917;40;915;-11
2021/05/01 07:05:30;;;;;;;;;;;;;;;;;;7337740;40;1039;-11
2021/05/01 07:10:51;;;;;;;;;;;;;;;;;;7337196;40;1871;-11
2021/05/01 07:16:12;;;;;;;;;;;;;;;;;;7337363;40;1017;-10
2021/05/01 07:21:33;;;;;;;;;;;;;;;;;;7336693;40;1092;-10
2021/05/01 07:26:54;;;;;;;;;;;;;;;;;;7337598;40;987;-10
2021/05/01 07:32:15;;;;;;;;;;;;;;;;;;7336857;40;1953;-10
2021/05/01 07:37:37;;;;;;;;;;;;;;;;;;7337155;40;961;-10
2021/05/01 07:42:58;;;;;;;;;;;;;;;;;;7336867;40;1088;-10
2021/05/01 07:48:20;;;;;;;;;;;;;;;;;;7335799;40;1940;-10
2021/05/01 07:53:41;;;;;;;;;;;;;;;;;;7336803;40;981;-9
2021/05/01 07:59:05;;;;;;;;;;;;;;;;;;7336913;40;963;-10
2021/05/01 08:04:25;;;;;;;;;;;;;;;;;;7336618;40;1106;-9
2021/05/01 08:09:46;;;;;;;;;;;;;;;;;;7336737;40;1878;-9
2021/05/01 08:15:08;;;;;;;;;;;;;;;;;;7336575;40;1232;-10
2021/05/01 08:20:29;;;;;;;;;;;;;;;;;;7336812;40;983;-9
2021/05/01 08:25:49;;;;;;;;;;;;;;;;;;7336482;40;974;-9
2021/05/01 08:31:10;;;;;;;;;;;;;;;;;;7336390;40;1873;-10
2021/05/01 08:36:30;;;;;;;;;;;;;;;;;;7336154;40;1088;-10
2021/05/01 08:41:50;;;;;;;;;;;;;;;;;;7335706;40;977;-10
2021/05/01 08:47:11;;;;;;;;;;;;;;;;;;7335794;40;1083;-10
2021/05/01 08:52:31;;;;;;;;;;;;;;;;;;7335776;40;1931;-10
2021/05/01 08:57:52;;;;;;;;;;;;;;;;;;7338009;40;1031;-9
2021/05/01 09:03:14;;;;;;;;;;;;;;;;;;7339450;40;1050;-9
2021/05/01 09:08:38;;;;;;;;;;;;;;;;;;7338997;40;1961;-9
2021/05/01 09:13:59;;;;;;;;;;;;;;;;;;7339082;40;1301;-10
2021/05/01 09:19:28;;;;;;;;;;;;;;;;;;7339049;40;1025;-10
2021/05/01 09:24:49;;;;;;;;;;;;;;;;;;7338604;40;1049;-10
2021/05/01 09:30:13;;;;;;;;;;;;;;;;;;7338985;40;1882;-9
2021/05/01 09:35:34;;;;;;;;;;;;;;;;;;7345308;40;1010;-10
2021/05/01 09:40:54;;;;;;;;;;;;;;;;;;7338792;40;928;-10
2021/05/01 09:46:14;;;;;;;;;;;;;;;;;;7338719;40;984;-10
2021/05/01 09:51:43;;;;;;;;;;;;;;;;;;7338671;40;1880;-11
2021/05/01 09:57:05;;;;;;;;;;;;;;;;;;7338597;40;1007;-11
2021/05/01 10:02:33;;;;;;;;;;;;;;;;;;7338319;40;1023;-10
2021/05/01 10:07:53;;;;;;;;;;;;;;;;;;7317883;40;1062;-9
2021/05/01 10:13:17;;;;;;;;;;;;;;;;;;7317923;40;1171;-10
2021/05/01 10:18:37;;;;;;;;;;;;;;;;;;7317867;40;977;-10
2021/05/01 10:23:58;;;;;;;;;;;;;;;;;;7317701;40;984;-9
2021/05/01 10:29:30;;;;;;;;;;;;;;;;;;7317897;40;1874;-9
2021/05/01 10:34:56;;;;;;;;;;;;;;;;;;7317651;40;1098;-10
2021/05/01 10:40:16;;;;;;;;;;;;;;;;;;7317885;40;1012;-10
2021/05/01 10:45:36;;;;;;;;;;;;;;;;;;7317581;40;984;-11
2021/05/01 10:50:58;;;;;;;;;;;;;;;;;;7317396;40;1880;-11
2021/05/01 10:56:26;;;;;;;;;;;;;;;;;;7317481;40;1137;-11
2021/05/01 11:01:47;;;;;;;;;;;;;;;;;;7317328;40;1039;-11
2021/05/01 11:07:08;;;;;;;;;;;;;;;;;;7334799;40;1039;-11
2021/05/01 11:12:29;;;;;;;;;;;;;;;;;;7337265;40;1945;-11
2021/05/01 11:18:07;;;;;;;;;;;;;;;;;;7337347;40;999;-9
2021/05/01 11:23:30;;;;;;;;;;;;;;;;;;7337254;40;1008;-10
2021/05/01 11:28:50;;;;;;;;;;;;;;;;;;7337487;40;1879;-10
2021/05/01 11:34:12;;;;;;;;;;;;;;;;;;7337146;40;964;-9
2021/05/01 11:39:40;;;;;;;;;;;;;;;;;;7337184;40;1027;-10
2021/05/01 11:45:03;;;;;;;;;;;;;;;;;;7337119;40;935;-10
2021/05/01 11:50:24;;;;;;;;;;;;;;;;;;7336605;40;1943;-11
2021/05/01 11:56:16;;;;;;;;;;;;;;;;;;7336701;40;1031;-11
2021/05/01 12:02:00;;;;;;;;;;;;;;;;;;7336903;40;1219;-11
2021/05/01 12:07:33;;;;;;;;;;;;;;;;;;7336565;40;1260;-10
2021/05/01 12:13:04;;;;;;;;;;;;;;;;;;7336500;40;1874;-11
2021/05/01 12:18:50;;;;;;;;;;;;;;;;;;7336517;40;970;-11
2021/05/01 12:24:21;;;;;;;;;;;;;;;;;;7336329;40;1112;-11
2021/05/01 12:29:42;;;;;;;;;;;;;;;;;;7336338;40;1878;-11
2021/05/01 12:35:04;;;;;;;;;;;;;;;;;;7339188;40;981;-11
2021/05/01 12:40:24;;;;;;;;;;;;;;;;;;7339728;40;982;-11
2021/05/01 12:45:44;;;;;;;;;;;;;;;;;;7339152;40;1003;-11
2021/05/01 12:51:12;;;;;;;;;;;;;;;;;;7344752;40;1902;-11
2021/05/01 12:56:36;;;;;;;;;;;;;;;;;;7353861;40;1289;-10
2021/05/01 13:01:59;;;;;;;;;;;;;;;;;;7359661;40;1023;-11
2021/05/01 13:07:19;;;;;;;;;;;;;;;;;;7345003;40;1157;-10
2021/05/01 13:12:54;;;;;;;;;;;;;;;;;;7344192;40;1890;-12
2021/05/01 13:18:14;;;;;;;;;;;;;;;;;;7339126;40;1038;-11
2021/05/01 13:23:35;;;;;;;;;;;;;;;;;;7338061;40;1011;-12
2021/05/01 13:28:56;;;;;;;;;;;;;;;;;;7344865;40;1902;-13
2021/05/01 13:34:17;;;;;;;;;;;;;;;;;;7336789;40;1279;-11
2021/05/01 13:39:38;;;;;;;;;;;;;;;;;;7345403;40;974;-12
2021/05/01 13:44:59;;;;;;;;;;;;;;;;;;7323717;40;1016;-12
2021/05/01 13:50:25;;;;;;;;;;;;;;;;;;7325247;40;1961;-13
2021/05/01 13:55:46;;;;;;;;;;;;;;;;;;7344697;40;1168;-12
2021/05/01 14:01:06;;;;;;;;;;;;;;;;;;7348955;40;2573;-15
2021/05/01 14:06:28;;;;;;;;;;;;;;;;;;7337664;40;1175;-14
2021/05/01 14:11:49;;;;;;;;;;;;;;;;;;7333508;40;1892;-14
2021/05/01 14:17:27;;;;;;;;;;;;;;;;;;7335574;40;1116;-14
2021/05/01 14:22:48;;;;;;;;;;;;;;;;;;7337846;40;1188;-15
2021/05/01 14:28:13;;;;;;;;;;;;;;;;;;7315210;40;1413;-13
2021/05/01 14:33:37;;;;;;;;;;;;;;;;;;7325478;40;1935;-13
2021/05/01 14:38:58;;;;;;;;;;;;;;;;;;7348012;40;998;-14
2021/05/01 14:44:24;;;;;;;;;;;;;;;;;;7335332;40;1020;-13
2021/05/01 14:49:44;;;;;;;;;;;;;;;;;;7334997;40;1939;-13
2021/05/01 14:55:05;;;;;;;;;;;;;;;;;;7334425;40;1137;-19
2021/05/01 15:00:25;;;;;;;;;;;;;;;;;;7090224;40;10000262;-20
2021/05/01 15:05:46;;;;;;;;;;;;;;;;;;7334571;40;1983;-13
2021/05/01 15:11:10;;;;;;;;;;;;;;;;;;7334973;40;1889;-13
2021/05/01 15:16:55;;;;;;;;;;;;;;;;;;7334781;40;972;-14
2021/05/01 15:22:15;;;;;;;;;;;;;;;;;;7333120;40;1117;-14
2021/05/01 15:27:36;;;;;;;;;;;;;;;;;;7334008;40;1355;-13
2021/05/01 15:32:58;;;;;;;;;;;;;;;;;;7327465;40;1881;-14
2021/05/01 15:38:19;;;;;;;;;;;;;;;;;;7314626;40;1015;-14
2021/05/01 15:43:40;;;;;;;;;;;;;;;;;;7313875;40;1358;-13
2021/05/01 15:49:02;;;;;;;;;;;;;;;;;;7314502;40;1967;-12
2021/05/01 15:54:22;;;;;;;;;;;;;;;;;;7334213;40;1099;-13
2021/05/01 15:59:42;;;;;;;;;;;;;;;;;;7334132;40;2568;-13
2021/05/01 16:05:03;;;;;;;;;;;;;;;;;;7334693;40;1908;-14
2021/05/01 16:10:25;;;;;;;;;;;;;;;;;;7337138;40;1957;-14
2021/05/01 16:15:46;;;;;;;;;;;;;;;;;;7337309;40;964;-14
2021/05/01 16:21:06;;;;;;;;;;;;;;;;;;7336515;40;1568;-14
2021/05/01 16:26:27;;;;;;;;;;;;;;;;;;7328301;40;993;-14
2021/05/01 16:31:48;;;;;;;;;;;;;;;;;;7336769;40;1948;-13
2021/05/01 16:37:08;;;;;;;;;;;;;;;;;;7322504;40;1135;-13
2021/05/01 16:42:31;;;;;;;;;;;;;;;;;;7321692;40;1043;-13
2021/05/01 16:48:00;;;;;;;;;;;;;;;;;;7331820;40;1362;-13
2021/05/01 16:53:20;;;;;;;;;;;;;;;;;;7338928;40;2802;-14
2021/05/01 16:58:40;;;;;;;;;;;;;;;;;;7333122;40;1053;-13
2021/05/01 17:04:02;;;;;;;;;;;;;;;;;;7336375;40;1061;-15
2021/05/01 17:09:23;;;;;;;;;;;;;;;;;;7322947;40;2056;-14
2021/05/01 17:14:43;;;;;;;;;;;;;;;;;;7315991;40;1229;-11
2021/05/01 17:20:19;;;;;;;;;;;;;;;;;;7321132;40;1153;-13
2021/05/01 17:25:39;;;;;;;;;;;;;;;;;;7315186;40;1031;-12
2021/05/01 17:30:59;;;;;;;;;;;;;;;;;;7318113;40;1943;-14
2021/05/01 17:36:20;;;;;;;;;;;;;;;;;;7323586;40;1115;-14
2021/05/01 17:41:43;;;;;;;;;;;;;;;;;;7324514;40;1129;-13
2021/05/01 17:47:04;;;;;;;;;;;;;;;;;;7335756;40;1173;-13
2021/05/01 17:52:24;;;;;;;;;;;;;;;;;;7335822;40;2280;-13
2021/05/01 17:57:45;;;;;;;;;;;;;;;;;;7335987;40;978;-13
2021/05/01 18:03:06;;;;;;;;;;;;;;;;;;7329570;40;1059;-13
2021/05/01 18:08:26;;;;;;;;;;;;;;;;;;7334931;40;1125;-13
2021/05/01 18:13:47;;;;;;;;;;;;;;;;;;7334894;40;1870;-12
2021/05/01 18:19:09;;;;;;;;;;;;;;;;;;7334047;40;1070;-13
2021/05/01 18:24:30;;;;;;;;;;;;;;;;;;7325071;40;1073;-13
2021/05/01 18:29:51;;;;;;;;;;;;;;;;;;7329721;40;1891;-14
2021/05/01 18:35:12;;;;;;;;;;;;;;;;;;7326473;40;1048;-13
2021/05/01 18:40:32;;;;;;;;;;;;;;;;;;7335061;40;1005;-13
2021/05/01 18:45:53;;;;;;;;;;;;;;;;;;7335014;40;1092;-12
2021/05/01 18:51:13;;;;;;;;;;;;;;;;;;7335284;40;1936;-13
2021/05/01 18:56:34;;;;;;;;;;;;;;;;;;7334882;40;2434;-13
2021/05/01 19:01:54;;;;;;;;;;;;;;;;;;7334834;40;3416;-13
2021/05/01 19:07:15;;;;;;;;;;;;;;;;;;7340838;40;1206;-14
2021/05/01 19:13:00;;;;;;;;;;;;;;;;;;7324405;40;1936;-14
2021/05/01 19:18:22;;;;;;;;;;;;;;;;;;7330208;40;1108;-13
2021/05/01 19:23:43;;;;;;;;;;;;;;;;;;7334721;40;968;-14
2021/05/01 19:29:05;;;;;;;;;;;;;;;;;;7333181;40;999;-14
2021/05/01 19:34:25;;;;;;;;;;;;;;;;;;7334718;40;1024;-14
2021/05/01 19:39:46;;;;;;;;;;;;;;;;;;7334699;40;1110;-14
2021/05/01 19:45:09;;;;;;;;;;;;;;;;;;7334470;40;1004;-14
2021/05/01 19:50:30;;;;;;;;;;;;;;;;;;7325626;40;1925;-14
2021/05/01 19:55:51;;;;;;;;;;;;;;;;;;7333551;40;2788;-15
2021/05/01 20:01:11;;;;;;;;;;;;;;;;;;7334057;40;2050;-13
2021/05/01 20:06:32;;;;;;;;;;;;;;;;;;7333911;40;1046;-13
2021/05/01 20:11:52;;;;;;;;;;;;;;;;;;7328594;40;1898;-13
2021/05/01 20:17:13;;;;;;;;;;;;;;;;;;7314187;40;966;-13
2021/05/01 20:22:36;;;;;;;;;;;;;;;;;;7313447;40;989;-19
2021/05/01 20:27:57;;;;;;;;;;;;;;;;;;7315685;40;1036;-14
2021/05/01 20:33:17;;;;;;;;;;;;;;;;;;7334808;40;1898;-12
2021/05/01 20:38:38;;;;;;;;;;;;;;;;;;7336393;40;996;-12
2021/05/01 20:43:58;;;;;;;;;;;;;;;;;;7336710;40;1107;-12
2021/05/01 20:49:19;;;;;;;;;;;;;;;;;;7336210;40;1142;-12
2021/05/01 20:54:54;;;;;;;;;;;;;;;;;;7338660;40;1335;-12
2021/05/01 21:00:15;;;;;;;;;;;;;;;;;;7341410;40;1063;-13
2021/05/01 21:05:35;;;;;;;;;;;;;;;;;;7339198;40;1124;-13
2021/05/01 21:10:56;;;;;;;;;;;;;;;;;;7336567;40;1881;-13
2021/05/01 21:16:17;;;;;;;;;;;;;;;;;;7341442;40;985;-13
2021/05/01 21:21:37;;;;;;;;;;;;;;;;;;7338146;40;1036;-13
2021/05/01 21:26:57;;;;;;;;;;;;;;;;;;7338664;40;1077;-12
2021/05/01 21:32:18;;;;;;;;;;;;;;;;;;7338940;40;1867;-12
2021/05/01 21:37:38;;;;;;;;;;;;;;;;;;7338789;40;1031;-12
2021/05/01 21:42:58;;;;;;;;;;;;;;;;;;7339010;40;940;-13
2021/05/01 21:48:18;;;;;;;;;;;;;;;;;;7339024;40;1076;-12
2021/05/01 21:53:39;;;;;;;;;;;;;;;;;;7337881;40;1932;-12
2021/05/01 21:59:00;;;;;;;;;;;;;;;;;;7331908;40;1002;-12
2021/05/01 22:04:22;;;;;;;;;;;;;;;;;;7334668;40;1102;-12
2021/05/01 22:09:44;;;;;;;;;;;;;;;;;;7344324;40;1878;-13
2021/05/01 22:15:04;;;;;;;;;;;;;;;;;;7338528;40;1169;-13
2021/05/01 22:20:27;;;;;;;;;;;;;;;;;;7338777;40;1079;-12
2021/05/01 22:25:51;;;;;;;;;;;;;;;;;;7338895;40;1104;-12
2021/05/01 22:31:12;;;;;;;;;;;;;;;;;;7338548;40;1878;-14
2021/05/01 22:36:32;;;;;;;;;;;;;;;;;;7337261;40;985;-12
2021/05/01 22:41:53;;;;;;;;;;;;;;;;;;7338247;40;1009;-13
2021/05/01 22:47:14;;;;;;;;;;;;;;;;;;7338395;40;1124;-12
2021/05/01 22:52:35;;;;;;;;;;;;;;;;;;7338334;40;1875;-12
2021/05/01 22:57:57;;;;;;;;;;;;;;;;;;7338244;40;1225;-12
2021/05/01 23:03:18;;;;;;;;;;;;;;;;;;7347372;40;1461;-12
2021/05/01 23:08:39;;;;;;;;;;;;;;;;;;7340761;40;1014;-12
2021/05/01 23:13:59;;;;;;;;;;;;;;;;;;7337440;40;1900;-12
2021/05/01 23:19:20;;;;;;;;;;;;;;;;;;7340644;40;1129;-13
2021/05/01 23:24:40;;;;;;;;;;;;;;;;;;7337813;40;1075;-13
2021/05/01 23:30:01;;;;;;;;;;;;;;;;;;7337966;40;1945;-12
2021/05/01 23:35:23;;;;;;;;;;;;;;;;;;7337680;40;1146;-12
2021/05/01 23:40:43;;;;;;;;;;;;;;;;;;7337507;40;976;-13
2021/05/01 23:46:09;;;;;;;;;;;;;;;;;;7337646;40;1113;-12
2021/05/01 23:51:30;;;;;;;;;;;;;;;;;;7337776;40;1878;-12
2021/05/01 23:56:50;;;;;;;;;;;;;;;;;;7339426;40;1067;-12
